Time;durP1;ratioP1;P1;durP2;ratioP2;P2;SDS_P1;SDS_P2;PMS_P1;PMS_P2;Temp;Humidity;BMP_temperature;BMP_pressure;BME280_temperature;BME280_humidity;BME280_pressure;Samples;Min_cycle;Max_cycle;Signal;HPM_P1;HPM_P2
2024/03/04 00:01:56;;;;;;;13.43;4.28;;;12.20;92.90;;;;;;5051307;28;20033;-50
2024/03/04 00:04:22;;;;;;;12.25;4.38;;;12.10;93.00;;;;;;5068887;28;20031;-50
2024/03/04 00:06:47;;;;;;;17.40;4.88;;;12.10;93.00;;;;;;5051243;28;20088;-50
2024/03/04 00:09:14;;;;;;;14.35;4.93;;;12.10;93.10;;;;;;5068906;28;20033;-50
2024/03/04 00:11:39;;;;;;;12.02;4.50;;;12.10;93.10;;;;;;5068713;28;20025;-50
2024/03/04 00:14:05;;;;;;;15.93;4.47;;;12.10;93.10;;;;;;5034546;28;20056;-51
2024/03/04 00:16:30;;;;;;;11.70;5.15;;;12.10;93.10;;;;;;5050976;28;20036;-50
2024/03/04 00:18:57;;;;;;;13.35;5.20;;;12.10;93.10;;;;;;5068645;28;20040;-50
2024/03/04 00:21:23;;;;;;;13.77;4.78;;;12.00;93.10;;;;;;5034478;28;20025;-50
2024/03/04 00:23:49;;;;;;;15.38;5.20;;;12.00;93.10;;;;;;5050854;28;20043;-50
2024/03/04 00:26:15;;;;;;;11.93;3.88;;;12.00;93.20;;;;;;5050829;28;20036;-50
2024/03/04 00:28:41;;;;;;;10.57;4.35;;;12.00;93.30;;;;;;5068599;28;20017;-51
2024/03/04 00:31:07;;;;;;;11.10;4.32;;;12.00;93.30;;;;;;5068642;28;20025;-50
2024/03/04 00:33:32;;;;;;;12.57;4.20;;;12.00;93.30;;;;;;5068543;28;20025;-51
2024/03/04 00:35:58;;;;;;;12.18;4.40;;;11.90;93.20;;;;;;5050513;28;20047;-51
2024/03/04 00:38:23;;;;;;;14.75;4.22;;;12.00;93.30;;;;;;5068512;28;20032;-51
2024/03/04 00:40:49;;;;;;;11.32;4.57;;;11.90;93.30;;;;;;5050307;28;20033;-50
2024/03/04 00:43:15;;;;;;;7.63;4.28;;;11.90;93.30;;;;;;5050232;28;20040;-50
2024/03/04 00:45:41;;;;;;;9.23;3.88;;;11.90;93.30;;;;;;5033982;28;20092;-50
2024/03/04 00:48:07;;;;;;;10.48;4.63;;;11.90;93.40;;;;;;5050623;28;20051;-50
2024/03/04 00:50:32;;;;;;;6.28;4.03;;;11.90;93.40;;;;;;5050475;28;20104;-50
2024/03/04 00:52:58;;;;;;;13.45;4.35;;;11.90;93.30;;;;;;5050268;28;20032;-50
2024/03/04 00:55:24;;;;;;;11.27;4.03;;;11.90;93.40;;;;;;5050404;28;20491;-50
2024/03/04 00:57:50;;;;;;;11.52;3.85;;;11.90;93.40;;;;;;5050157;28;20025;-50
2024/03/04 01:00:17;;;;;;;7.63;4.07;;;11.90;93.40;;;;;;5033497;28;20089;-50
2024/03/04 01:02:43;;;;;;;10.68;4.13;;;11.80;93.50;;;;;;5067966;28;20025;-50
2024/03/04 01:05:09;;;;;;;9.15;3.92;;;11.80;93.50;;;;;;5033070;28;20119;-50
2024/03/04 01:07:35;;;;;;;12.13;3.95;;;11.90;93.50;;;;;;5049803;28;20029;-50
2024/03/04 01:10:00;;;;;;;8.60;4.00;;;11.90;93.50;;;;;;5050771;28;20411;-51
2024/03/04 01:12:26;;;;;;;10.85;3.60;;;11.80;93.40;;;;;;5050399;28;20061;-50
2024/03/04 01:14:52;;;;;;;9.43;4.28;;;11.90;93.50;;;;;;5049855;28;20037;-50
2024/03/04 01:17:17;;;;;;;8.90;4.75;;;11.80;93.40;;;;;;5033181;28;20029;-50
2024/03/04 01:19:46;;;;;;;10.30;4.07;;;11.80;93.40;;;;;;5049893;28;20088;-51
2024/03/04 01:22:18;;;;;;;8.88;3.70;;;11.80;93.40;;;;;;5049486;28;20113;-51
2024/03/04 01:24:44;;;;;;;12.02;3.50;;;11.80;93.50;;;;;;5067512;28;20033;-50
2024/03/04 01:27:10;;;;;;;7.63;3.55;;;11.80;93.50;;;;;;5049727;28;20033;-50
2024/03/04 01:29:37;;;;;;;6.47;3.42;;;11.80;93.50;;;;;;5067675;28;20021;-50
2024/03/04 01:32:02;;;;;;;10.32;3.60;;;11.80;93.60;;;;;;5033166;28;20488;-51
2024/03/04 01:34:29;;;;;;;8.73;3.85;;;11.80;93.60;;;;;;5049596;28;20032;-50
2024/03/04 01:36:54;;;;;;;6.50;3.20;;;11.70;93.60;;;;;;5032576;28;20127;-50
2024/03/04 01:39:21;;;;;;;9.23;3.63;;;11.70;93.60;;;;;;5032826;28;20053;-51
2024/03/04 01:41:47;;;;;;;11.13;3.72;;;11.70;93.60;;;;;;5049562;28;20055;-50
2024/03/04 01:44:12;;;;;;;11.93;3.70;;;11.70;93.60;;;;;;5032767;28;20025;-50
2024/03/04 01:46:39;;;;;;;6.15;3.40;;;11.70;93.60;;;;;;5049111;28;20035;-50
2024/03/04 01:49:04;;;;;;;8.23;3.17;;;11.70;93.70;;;;;;5032675;28;20357;-50
2024/03/04 01:51:30;;;;;;;8.70;3.38;;;11.70;93.70;;;;;;5032603;28;20028;-50
2024/03/04 01:53:56;;;;;;;5.03;3.15;;;11.70;93.70;;;;;;5049182;28;20029;-50
2024/03/04 01:56:21;;;;;;;5.63;3.40;;;11.60;93.70;;;;;;5049100;28;20057;-50
2024/03/04 01:58:47;;;;;;;5.35;3.00;;;11.70;93.70;;;;;;5049090;28;20549;-50
2024/03/04 02:01:13;;;;;;;8.88;3.70;;;11.70;93.70;;;;;;5048977;28;20098;-50
2024/03/04 02:03:39;;;;;;;5.32;3.15;;;11.60;93.70;;;;;;5048953;28;20033;-50
2024/03/04 02:06:05;;;;;;;7.07;3.88;;;11.60;93.70;;;;;;5048863;28;20467;-50
2024/03/04 02:08:30;;;;;;;7.78;3.50;;;11.60;93.80;;;;;;5048954;28;20025;-50
2024/03/04 02:10:56;;;;;;;7.47;3.50;;;11.60;93.80;;;;;;5048667;28;20066;-51
2024/03/04 02:13:21;;;;;;;5.40;3.22;;;11.60;93.80;;;;;;5048866;28;20029;-51
2024/03/04 02:15:47;;;;;;;5.75;3.00;;;11.60;93.80;;;;;;5048711;28;20087;-50
2024/03/04 02:18:13;;;;;;;10.77;3.30;;;11.60;93.80;;;;;;5047985;28;20442;-51
2024/03/04 02:20:39;;;;;;;7.03;3.17;;;11.60;93.90;;;;;;5049005;28;20037;-50
2024/03/04 02:23:07;;;;;;;9.65;3.42;;;11.50;93.80;;;;;;5048395;28;20032;-53
2024/03/04 02:25:36;;;;;;;6.38;3.13;;;11.50;93.90;;;;;;5066353;28;20033;-51
2024/03/04 02:28:06;;;;;;;4.75;3.25;;;11.50;93.90;;;;;;5066498;28;20056;-50
2024/03/04 02:30:32;;;;;;;4.95;2.90;;;11.50;93.90;;;;;;5032140;28;20057;-50
2024/03/04 02:32:58;;;;;;;5.40;2.92;;;11.50;93.90;;;;;;5032089;28;20026;-50
2024/03/04 02:35:27;;;;;;;4.63;2.70;;;11.50;93.90;;;;;;5048356;28;20411;-51
2024/03/04 02:37:53;;;;;;;6.40;3.05;;;11.50;93.90;;;;;;5048479;28;20131;-50
2024/03/04 02:40:19;;;;;;;6.65;3.20;;;11.50;93.90;;;;;;5048270;28;20111;-50
2024/03/04 02:42:45;;;;;;;5.95;2.95;;;11.40;93.90;;;;;;5065527;28;20041;-51
2024/03/04 02:45:10;;;;;;;5.05;2.72;;;11.40;93.90;;;;;;5031753;28;20036;-50
2024/03/04 02:47:36;;;;;;;5.47;2.78;;;11.40;93.90;;;;;;5048323;28;20040;-51
2024/03/04 02:50:03;;;;;;;6.05;3.10;;;11.40;94.00;;;;;;5048334;28;20056;-51
2024/03/04 02:52:28;;;;;;;7.15;3.20;;;11.40;94.00;;;;;;5066273;28;20025;-50
2024/03/04 02:54:54;;;;;;;5.00;3.10;;;11.40;94.00;;;;;;5031803;28;20060;-50
2024/03/04 02:57:20;;;;;;;4.53;2.90;;;11.40;94.00;;;;;;5048126;28;20083;-50
2024/03/04 02:59:45;;;;;;;7.20;3.03;;;11.40;94.00;;;;;;5048212;28;20411;-50
2024/03/04 03:02:11;;;;;;;6.85;2.78;;;11.40;94.00;;;;;;5048217;28;20223;-50
2024/03/04 03:04:36;;;;;;;4.20;2.80;;;11.30;94.00;;;;;;5065989;28;20152;-50
2024/03/04 03:07:02;;;;;;;6.07;2.92;;;11.30;94.00;;;;;;5048176;28;20479;-50
2024/03/04 03:09:28;;;;;;;3.55;2.40;;;11.30;94.00;;;;;;5048224;28;20032;-50
2024/03/04 03:11:55;;;;;;;5.88;2.95;;;11.30;94.00;;;;;;5048055;28;20054;-51
2024/03/04 03:14:21;;;;;;;8.93;3.08;;;11.30;94.00;;;;;;5031722;28;20479;-50
2024/03/04 03:16:48;;;;;;;6.05;2.92;;;11.30;94.00;;;;;;5048186;28;20491;-51
2024/03/04 03:19:24;;;;;;;4.80;2.53;;;11.30;94.00;;;;;;5048025;28;20025;-51
2024/03/04 03:21:52;;;;;;;3.90;2.70;;;11.30;94.00;;;;;;5031383;28;20037;-50
2024/03/04 03:24:21;;;;;;;5.70;2.60;;;11.30;94.00;;;;;;5047819;28;20494;-51
2024/03/04 03:26:47;;;;;;;6.70;2.65;;;11.30;94.10;;;;;;5065848;28;20059;-51
2024/03/04 03:29:13;;;;;;;4.40;2.20;;;11.30;94.10;;;;;;5067203;28;20076;-50
2024/03/04 03:31:39;;;;;;;4.85;2.20;;;11.30;94.10;;;;;;5052097;28;20100;-50
2024/03/04 03:34:05;;;;;;;3.20;2.50;;;11.30;94.10;;;;;;5051821;28;20053;-51
2024/03/04 03:36:30;;;;;;;4.63;2.75;;;11.20;94.00;;;;;;5069575;28;20040;-51
2024/03/04 03:38:56;;;;;;;3.65;2.40;;;11.20;94.00;;;;;;5069486;28;20040;-50
2024/03/04 03:41:22;;;;;;;3.50;2.53;;;11.20;94.10;;;;;;5069670;28;20384;-50
2024/03/04 03:43:48;;;;;;;4.07;2.83;;;11.20;94.10;;;;;;5069242;28;20028;-50
2024/03/04 03:46:14;;;;;;;4.78;2.72;;;11.20;94.10;;;;;;5069543;28;20033;-50
2024/03/04 03:48:42;;;;;;;4.22;2.45;;;11.20;94.20;;;;;;5051623;28;20052;-50
2024/03/04 03:51:08;;;;;;;3.20;2.40;;;11.20;94.20;;;;;;5051540;28;20464;-50
2024/03/04 03:53:33;;;;;;;3.55;2.78;;;11.20;94.20;;;;;;5069365;28;20030;-50
2024/03/04 03:56:02;;;;;;;4.07;2.30;;;11.20;94.20;;;;;;5034947;28;20124;-51
2024/03/04 03:58:27;;;;;;;4.28;2.50;;;11.20;94.10;;;;;;5051296;28;20032;-50
2024/03/04 04:00:53;;;;;;;5.22;2.72;;;11.10;94.10;;;;;;5051306;28;20029;-50
2024/03/04 04:03:21;;;;;;;3.53;2.33;;;11.10;94.10;;;;;;5068872;28;20040;-50
2024/03/04 04:05:47;;;;;;;2.88;2.40;;;11.10;94.10;;;;;;5051582;28;20040;-50
2024/03/04 04:08:13;;;;;;;3.22;2.30;;;11.10;94.10;;;;;;5034548;28;20048;-50
2024/03/04 04:10:38;;;;;;;6.75;2.40;;;11.10;94.10;;;;;;5069066;28;20036;-50
2024/03/04 04:13:04;;;;;;;2.97;2.30;;;11.10;94.10;;;;;;5050926;28;20041;-50
2024/03/04 04:15:29;;;;;;;2.95;2.30;;;11.10;94.10;;;;;;5068937;28;20033;-50
2024/03/04 04:17:55;;;;;;;4.85;2.47;;;11.00;94.10;;;;;;5051302;28;20377;-51
2024/03/04 04:20:20;;;;;;;3.38;2.42;;;11.00;94.10;;;;;;5034388;28;20032;-50
2024/03/04 04:22:46;;;;;;;3.85;2.17;;;11.00;94.10;;;;;;5068838;28;20055;-50
2024/03/04 04:25:13;;;;;;;4.43;2.53;;;11.00;94.10;;;;;;5068628;28;20033;-50
2024/03/04 04:27:39;;;;;;;5.10;2.58;;;11.00;94.10;;;;;;5068672;28;20027;-50
2024/03/04 04:30:06;;;;;;;3.45;2.22;;;11.00;94.10;;;;;;5050753;28;20048;-50
2024/03/04 04:32:34;;;;;;;3.08;2.30;;;11.00;94.10;;;;;;5050905;28;20052;-50
2024/03/04 04:34:59;;;;;;;3.08;1.95;;;11.00;94.10;;;;;;5068521;28;20041;-50
2024/03/04 04:37:25;;;;;;;3.58;2.58;;;11.00;94.10;;;;;;5050558;28;20108;-50
2024/03/04 04:39:50;;;;;;;3.65;2.40;;;11.00;94.10;;;;;;5050118;28;20025;-50
2024/03/04 04:42:16;;;;;;;4.43;2.55;;;11.00;94.20;;;;;;5050563;28;20472;-50
2024/03/04 04:44:42;;;;;;;3.10;2.53;;;10.90;94.20;;;;;;5050248;28;20036;-50
2024/03/04 04:47:07;;;;;;;3.85;2.50;;;10.90;94.10;;;;;;5068254;28;20100;-50
2024/03/04 04:49:33;;;;;;;5.35;2.55;;;10.90;94.20;;;;;;5050463;28;20025;-50
2024/03/04 04:51:58;;;;;;;4.32;2.08;;;10.90;94.20;;;;;;5050321;28;20051;-50
2024/03/04 04:54:24;;;;;;;5.25;2.08;;;10.90;94.20;;;;;;5050232;28;20025;-50
2024/03/04 04:56:53;;;;;;;5.03;2.22;;;10.90;94.20;;;;;;5068236;28;20029;-50
2024/03/04 04:59:19;;;;;;;6.05;2.22;;;10.90;94.30;;;;;;5033519;28;20025;-50
2024/03/04 05:01:45;;;;;;;4.20;2.58;;;10.90;94.20;;;;;;5068056;28;20022;-51
2024/03/04 05:04:11;;;;;;;3.47;2.35;;;10.90;94.20;;;;;;5033346;28;20029;-51
2024/03/04 05:06:36;;;;;;;4.78;2.08;;;10.90;94.20;;;;;;5050080;28;20029;-51
2024/03/04 05:09:02;;;;;;;2.42;1.95;;;10.90;94.20;;;;;;5067867;28;20151;-51
2024/03/04 05:11:29;;;;;;;3.65;1.95;;;10.80;94.20;;;;;;5049941;28;20040;-50
2024/03/04 05:13:55;;;;;;;3.10;2.22;;;10.90;94.60;;;;;;5067618;28;20055;-51
2024/03/04 05:16:21;;;;;;;2.58;2.10;;;10.80;94.10;;;;;;5049886;28;20033;-51
2024/03/04 05:18:46;;;;;;;3.53;2.38;;;10.80;94.20;;;;;;5067476;28;20108;-51
2024/03/04 05:21:12;;;;;;;4.20;2.30;;;10.80;94.20;;;;;;5049791;28;20029;-51
2024/03/04 05:23:38;;;;;;;3.60;2.17;;;10.80;94.20;;;;;;5049755;28;20041;-51
2024/03/04 05:26:03;;;;;;;2.67;2.10;;;10.80;94.20;;;;;;5049665;28;20021;-51
2024/03/04 05:28:29;;;;;;;4.13;2.05;;;10.80;94.20;;;;;;5069238;28;20032;-51
2024/03/04 05:30:57;;;;;;;4.65;2.38;;;10.80;94.30;;;;;;5049943;28;20045;-51
2024/03/04 05:33:23;;;;;;;2.75;2.10;;;10.80;94.60;;;;;;5049838;28;20100;-50
2024/03/04 05:35:48;;;;;;;3.83;2.15;;;10.80;94.30;;;;;;5049460;28;20047;-51
2024/03/04 05:38:14;;;;;;;5.18;2.45;;;10.80;94.30;;;;;;5067351;28;20426;-50
2024/03/04 05:40:39;;;;;;;4.38;2.13;;;10.70;94.20;;;;;;5049357;28;20027;-51
2024/03/04 05:43:05;;;;;;;2.10;1.90;;;10.70;94.20;;;;;;5067116;28;20021;-51
2024/03/04 05:45:31;;;;;;;6.38;1.98;;;10.80;94.30;;;;;;5067161;28;20040;-51
2024/03/04 05:47:57;;;;;;;4.03;2.17;;;10.80;94.20;;;;;;5049207;28;20030;-51
2024/03/04 05:50:22;;;;;;;6.72;2.42;;;10.70;94.20;;;;;;5032539;28;20025;-51
2024/03/04 05:52:48;;;;;;;7.05;2.40;;;10.70;94.20;;;;;;5048446;28;20090;-51
2024/03/04 05:55:14;;;;;;;13.00;2.80;;;10.70;94.20;;;;;;5049056;28;20051;-51
2024/03/04 05:57:41;;;;;;;5.95;2.50;;;10.70;94.20;;;;;;5049180;28;20032;-51
2024/03/04 06:00:12;;;;;;;17.13;4.00;;;10.70;94.30;;;;;;5049076;28;20088;-51
2024/03/04 06:02:46;;;;;;;12.70;2.95;;;10.70;94.20;;;;;;5066876;28;20033;-57
2024/03/04 06:05:13;;;;;;;7.88;2.92;;;10.70;94.20;;;;;;5048789;28;20039;-57
2024/03/04 06:07:39;;;;;;;6.28;2.60;;;10.70;94.20;;;;;;5049038;28;20055;-57
2024/03/04 06:10:05;;;;;;;11.93;2.80;;;10.70;94.30;;;;;;5048098;28;20028;-57
2024/03/04 06:12:30;;;;;;;21.92;3.25;;;10.70;94.30;;;;;;5048884;28;20088;-57
2024/03/04 06:14:56;;;;;;;9.07;2.60;;;10.70;94.30;;;;;;5066471;28;20055;-57
2024/03/04 06:17:21;;;;;;;12.95;3.15;;;10.70;94.30;;;;;;5048599;28;20032;-57
2024/03/04 06:19:47;;;;;;;16.63;3.80;;;10.70;94.30;;;;;;5066574;28;20029;-57
2024/03/04 06:22:13;;;;;;;17.00;3.50;;;10.70;94.30;;;;;;5048428;28;20025;-57
2024/03/04 06:24:42;;;;;;;18.75;3.70;;;10.70;94.30;;;;;;5048499;28;20036;-57
2024/03/04 06:27:07;;;;;;;10.65;3.33;;;10.70;94.30;;;;;;5065929;28;20036;-57
2024/03/04 06:29:36;;;;;;;15.88;3.78;;;10.70;94.30;;;;;;5048402;28;20021;-57
2024/03/04 06:32:02;;;;;;;23.08;4.50;;;10.70;94.30;;;;;;5032358;28;20021;-57
2024/03/04 06:34:29;;;;;;;21.20;4.57;;;10.70;94.30;;;;;;5048312;28;20029;-57
2024/03/04 06:36:55;;;;;;;26.00;4.90;;;10.70;94.40;;;;;;5048630;28;20037;-57
2024/03/04 06:39:21;;;;;;;41.08;6.43;;;10.70;94.50;;;;;;5048315;28;20045;-57
2024/03/04 06:41:50;;;;;;;54.65;7.95;;;10.70;94.50;;;;;;5048604;28;20036;-57
2024/03/04 06:44:16;;;;;;;34.72;5.85;;;10.70;94.50;;;;;;5065934;28;20379;-57
2024/03/04 06:46:42;;;;;;;32.10;5.97;;;10.70;94.50;;;;;;5048286;28;20033;-56
2024/03/04 06:49:08;;;;;;;36.17;6.55;;;10.70;94.50;;;;;;5031695;28;20051;-57
2024/03/04 06:51:36;;;;;;;40.92;6.35;;;10.70;94.50;;;;;;5028179;28;20033;-57
2024/03/04 06:54:06;;;;;;;40.95;6.53;;;10.70;94.50;;;;;;5033609;28;20045;-57
2024/03/04 06:56:31;;;;;;;29.33;6.53;;;10.70;94.50;;;;;;5041487;28;20047;-57
2024/03/04 06:58:58;;;;;;;29.55;6.60;;;10.60;94.60;;;;;;5048015;28;20024;-57
2024/03/04 07:01:23;;;;;;;32.20;6.53;;;10.70;94.50;;;;;;5046960;28;20081;-57
2024/03/04 07:03:49;;;;;;;46.55;6.78;;;10.70;94.50;;;;;;5030940;28;20072;-57
2024/03/04 07:06:15;;;;;;;42.83;6.65;;;10.70;94.50;;;;;;5033037;28;20042;-57
2024/03/04 07:08:41;;;;;;;40.33;6.30;;;10.70;94.50;;;;;;5067766;28;20031;-57
2024/03/04 07:11:10;;;;;;;29.80;5.80;;;10.70;94.50;;;;;;5066081;28;20096;-57
2024/03/04 07:13:35;;;;;;;40.58;7.05;;;10.60;94.50;;;;;;5046046;28;20095;-57
2024/03/04 07:16:02;;;;;;;29.77;5.60;;;10.70;94.50;;;;;;5068487;28;20029;-57
2024/03/04 07:18:31;;;;;;;37.97;7.25;;;10.60;94.50;;;;;;5069592;28;20025;-57
2024/03/04 07:20:57;;;;;;;34.22;6.15;;;10.60;94.50;;;;;;5053426;28;20025;-58
2024/03/04 07:23:23;;;;;;;23.20;6.25;;;10.60;94.50;;;;;;5067610;28;20078;-57
2024/03/04 07:25:48;;;;;;;26.95;5.72;;;10.60;94.50;;;;;;5050293;28;20131;-57
2024/03/04 07:28:14;;;;;;;29.08;6.07;;;10.60;94.50;;;;;;5046534;28;20468;-57
2024/03/04 07:30:40;;;;;;;16.65;5.20;;;10.60;94.50;;;;;;5046558;28;20467;-57
2024/03/04 07:33:08;;;;;;;36.00;5.93;;;10.60;94.40;;;;;;5033691;28;20025;-58
2024/03/04 07:35:34;;;;;;;28.27;5.93;;;10.60;94.40;;;;;;5013665;28;20022;-57
2024/03/04 07:38:01;;;;;;;26.05;6.50;;;10.60;94.40;;;;;;5031803;28;20128;-57
2024/03/04 07:40:27;;;;;;;25.23;5.93;;;10.60;94.40;;;;;;5031851;28;20036;-57
2024/03/04 07:42:52;;;;;;;21.75;5.78;;;10.60;94.40;;;;;;5067858;28;20119;-57
2024/03/04 07:45:18;;;;;;;23.23;6.22;;;10.60;94.40;;;;;;5051408;28;20029;-57
2024/03/04 07:47:43;;;;;;;26.52;5.63;;;10.60;94.40;;;;;;5063453;28;20502;-57
2024/03/04 07:50:09;;;;;;;32.28;5.68;;;10.60;94.40;;;;;;5034112;28;20036;-57
2024/03/04 07:52:35;;;;;;;29.52;5.45;;;10.60;94.40;;;;;;5031869;28;20025;-57
2024/03/04 07:55:01;;;;;;;20.70;5.30;;;10.60;94.40;;;;;;5043845;28;20033;-57
2024/03/04 07:57:27;;;;;;;22.88;5.30;;;10.60;94.30;;;;;;5029669;28;20064;-57
2024/03/04 07:59:53;;;;;;;19.48;5.63;;;10.60;94.40;;;;;;5038627;28;20137;-57
2024/03/04 08:02:19;;;;;;;19.58;5.32;;;10.60;94.40;;;;;;5033937;28;20111;-57
2024/03/04 08:04:44;;;;;;;16.90;5.22;;;10.60;94.30;;;;;;5046132;28;20040;-57
2024/03/04 08:07:10;;;;;;;20.92;5.60;;;10.60;94.40;;;;;;5034174;28;20056;-57
2024/03/04 08:09:35;;;;;;;16.95;4.97;;;10.60;94.30;;;;;;5049286;28;20013;-57
2024/03/04 08:12:03;;;;;;;13.63;4.88;;;10.60;94.40;;;;;;5025166;28;20056;-58
2024/03/04 08:14:29;;;;;;;18.33;4.68;;;10.60;94.40;;;;;;5047864;28;20033;-57
2024/03/04 08:16:55;;;;;;;12.20;4.75;;;10.50;94.30;;;;;;5017554;28;20047;-57
2024/03/04 08:19:21;;;;;;;16.15;5.45;;;10.60;94.40;;;;;;5030549;28;20120;-57
2024/03/04 08:21:47;;;;;;;14.40;4.82;;;10.60;94.40;;;;;;5037197;28;20463;-57
2024/03/04 08:24:13;;;;;;;24.55;5.20;;;10.50;94.30;;;;;;5057688;28;20052;-57
2024/03/04 08:26:38;;;;;;;16.98;5.00;;;10.60;94.30;;;;;;5030629;28;20029;-57
2024/03/04 08:29:04;;;;;;;23.73;5.03;;;10.50;94.30;;;;;;5064692;28;20025;-58
2024/03/04 08:31:31;;;;;;;16.95;4.75;;;10.60;94.30;;;;;;5034899;28;20021;-57
2024/03/04 08:33:57;;;;;;;13.30;4.45;;;10.60;94.20;;;;;;5059488;28;20128;-57
2024/03/04 08:36:22;;;;;;;15.63;5.43;;;10.60;94.30;;;;;;5025491;28;20033;-57
2024/03/04 08:38:48;;;;;;;14.07;4.90;;;10.60;94.30;;;;;;5018081;28;20030;-57
2024/03/04 08:41:15;;;;;;;13.32;4.63;;;10.60;94.20;;;;;;5064036;28;20036;-58
2024/03/04 08:43:42;;;;;;;11.75;4.68;;;10.60;94.20;;;;;;5020076;28;20029;-57
2024/03/04 08:46:09;;;;;;;10.45;3.92;;;10.60;94.20;;;;;;5030108;28;20491;-57
2024/03/04 08:48:36;;;;;;;19.52;5.07;;;10.60;94.20;;;;;;5043884;28;20025;-57
2024/03/04 08:51:01;;;;;;;20.58;4.88;;;10.60;94.20;;;;;;5048398;28;20071;-57
2024/03/04 08:53:29;;;;;;;23.08;6.25;;;10.60;94.20;;;;;;5067650;28;20029;-58
2024/03/04 08:55:54;;;;;;;21.45;4.93;;;10.60;94.20;;;;;;5067705;28;20029;-58
2024/03/04 08:58:20;;;;;;;18.92;5.28;;;10.60;94.40;;;;;;5065898;28;20125;-58
2024/03/04 09:00:46;;;;;;;13.93;4.63;;;10.60;94.30;;;;;;5047918;28;20025;-57
2024/03/04 09:03:12;;;;;;;24.60;4.68;;;10.60;94.20;;;;;;5065852;28;20028;-57
2024/03/04 09:05:41;;;;;;;18.90;4.80;;;10.70;94.20;;;;;;5065806;28;20029;-58
2024/03/04 09:08:07;;;;;;;24.17;5.38;;;10.70;94.10;;;;;;5048788;28;20646;-57
2024/03/04 09:10:33;;;;;;;40.55;5.53;;;10.70;94.20;;;;;;5031525;28;20029;-57
2024/03/04 09:12:59;;;;;;;17.45;5.20;;;10.70;94.20;;;;;;5049436;28;20163;-57
2024/03/04 09:15:24;;;;;;;23.73;5.63;;;10.70;94.20;;;;;;5033079;28;20124;-57
2024/03/04 09:17:50;;;;;;;20.02;5.20;;;10.70;94.10;;;;;;5033170;28;20032;-57
2024/03/04 09:20:16;;;;;;;16.38;4.88;;;10.80;94.10;;;;;;5048898;28;20116;-57
2024/03/04 09:22:41;;;;;;;29.83;5.85;;;10.80;94.10;;;;;;5049406;28;20032;-58
2024/03/04 09:25:07;;;;;;;21.40;4.75;;;10.80;94.10;;;;;;5013112;28;20044;-57
2024/03/04 09:27:33;;;;;;;20.17;5.22;;;10.90;94.10;;;;;;5029577;28;20037;-57
2024/03/04 09:30:04;;;;;;;30.42;5.57;;;10.80;94.10;;;;;;5029549;28;20040;-57
2024/03/04 09:32:30;;;;;;;23.83;5.13;;;10.80;94.10;;;;;;5029633;28;20029;-57
2024/03/04 09:34:57;;;;;;;23.40;5.65;;;10.90;94.20;;;;;;5029134;28;20037;-57
2024/03/04 09:37:23;;;;;;;34.47;5.95;;;10.90;94.20;;;;;;4997000;28;20507;-57
2024/03/04 09:39:49;;;;;;;23.40;6.07;;;10.90;94.20;;;;;;5013094;28;20071;-57
2024/03/04 09:42:15;;;;;;;21.15;5.30;;;10.90;94.10;;;;;;5047162;28;20056;-57
2024/03/04 09:44:41;;;;;;;24.98;5.43;;;10.90;94.10;;;;;;5016789;28;20040;-57
2024/03/04 09:47:07;;;;;;;25.48;5.50;;;10.90;94.10;;;;;;5029270;28;20108;-57
2024/03/04 09:49:32;;;;;;;21.80;5.80;;;10.90;94.10;;;;;;5029646;28;20154;-57
2024/03/04 09:51:59;;;;;;;28.13;5.50;;;10.90;94.10;;;;;;5040412;28;20034;-57
2024/03/04 09:54:26;;;;;;;27.55;5.03;;;10.90;94.20;;;;;;5049679;28;20043;-57
2024/03/04 09:56:52;;;;;;;26.80;5.90;;;10.90;94.10;;;;;;5049146;28;20040;-57
2024/03/04 09:59:17;;;;;;;19.98;5.63;;;10.90;94.10;;;;;;5049031;28;20068;-57
2024/03/04 10:01:44;;;;;;;20.45;5.25;;;10.90;94.10;;;;;;5053977;28;20040;-57
2024/03/04 10:04:10;;;;;;;22.40;5.32;;;11.00;94.10;;;;;;5027933;28;20033;-57
2024/03/04 10:06:35;;;;;;;28.50;5.82;;;11.00;94.10;;;;;;5048374;28;20085;-57
2024/03/04 10:09:01;;;;;;;21.30;5.20;;;11.00;94.00;;;;;;5030771;28;20462;-57
2024/03/04 10:11:26;;;;;;;28.50;5.00;;;11.00;94.00;;;;;;5065173;28;20024;-57
2024/03/04 10:13:52;;;;;;;34.05;5.07;;;11.00;94.10;;;;;;5043622;28;20033;-57
2024/03/04 10:16:18;;;;;;;22.88;6.20;;;11.00;94.00;;;;;;5033405;28;20025;-57
2024/03/04 10:18:57;;;;;;;23.88;6.05;;;11.00;94.00;;;;;;5013146;28;20048;-57
2024/03/04 10:21:23;;;;;;;26.83;6.00;;;11.10;94.00;;;;;;5045033;28;20041;-57
2024/03/04 10:23:48;;;;;;;40.45;6.53;;;11.10;93.90;;;;;;5048530;28;20056;-57
2024/03/04 10:26:14;;;;;;;38.83;6.00;;;11.10;93.90;;;;;;5047501;28;20051;-57
2024/03/04 10:28:41;;;;;;;29.63;6.40;;;11.10;93.90;;;;;;5048278;28;20078;-57
2024/03/04 10:31:12;;;;;;;30.13;5.88;;;11.20;93.90;;;;;;5066237;28;20029;-57
2024/03/04 10:33:39;;;;;;;37.47;6.25;;;11.10;93.90;;;;;;5067676;28;20060;-57
2024/03/04 10:36:18;;;;;;;20.83;6.63;;;11.20;93.80;;;;;;5047541;28;20092;-57
2024/03/04 10:38:47;;;;;;;170.45;20.20;;;11.20;93.80;;;;;;5015448;28;20111;-57
2024/03/04 10:41:17;;;;;;;64.25;9.40;;;11.30;93.80;;;;;;5056713;28;20482;-57
2024/03/04 10:43:46;;;;;;;62.20;9.27;;;11.20;93.80;;;;;;5052225;28;20089;-57
2024/03/04 10:46:12;;;;;;;116.18;13.27;;;11.20;93.80;;;;;;5066392;28;20013;-57
2024/03/04 10:48:39;;;;;;;122.35;14.95;;;11.30;93.90;;;;;;5072215;28;20168;-57
2024/03/04 10:51:05;;;;;;;180.38;21.27;;;11.30;93.80;;;;;;5031751;28;20418;-57
2024/03/04 10:53:31;;;;;;;167.05;20.20;;;11.40;93.90;;;;;;5031525;28;20392;-57
2024/03/04 10:56:03;;;;;;;166.52;18.23;;;11.40;93.80;;;;;;5031517;28;20028;-58
2024/03/04 10:58:28;;;;;;;102.63;12.65;;;11.40;93.80;;;;;;5037735;28;20020;-57
2024/03/04 11:00:54;;;;;;;165.90;18.90;;;11.40;93.80;;;;;;5051238;28;20035;-57
2024/03/04 11:03:22;;;;;;;98.20;12.45;;;11.50;93.80;;;;;;5051079;28;20036;-57
2024/03/04 11:05:50;;;;;;;83.47;11.73;;;11.50;93.80;;;;;;5035080;28;20039;-57
2024/03/04 11:08:19;;;;;;;212.95;22.20;;;11.50;93.80;;;;;;5047331;28;20054;-57
2024/03/04 11:10:49;;;;;;;141.70;16.60;;;11.50;93.70;;;;;;5065471;28;20045;-57
2024/03/04 11:13:36;;;;;;;134.38;15.07;;;11.60;93.70;;;;;;5066561;28;20037;-57
2024/03/04 11:16:20;;;;;;;106.57;12.52;;;11.60;93.70;;;;;;5085933;28;20079;-57
2024/03/04 11:19:04;;;;;;;105.47;13.13;;;11.60;93.60;;;;;;5041557;28;20034;-57
2024/03/04 11:21:31;;;;;;;101.03;12.70;;;11.70;93.60;;;;;;5048435;28;20032;-57
2024/03/04 11:23:56;;;;;;;76.00;11.27;;;11.70;93.60;;;;;;5031033;28;20043;-57
2024/03/04 11:26:22;;;;;;;84.75;10.27;;;11.70;93.60;;;;;;5046418;28;20052;-57
2024/03/04 11:28:48;;;;;;;122.10;14.32;;;11.70;93.60;;;;;;5031415;28;20032;-57
2024/03/04 11:31:31;;;;;;;106.75;16.02;;;11.80;93.50;;;;;;5030029;28;20028;-57
2024/03/04 11:34:01;;;;;;;64.40;10.75;;;11.80;93.40;;;;;;5029818;28;20115;-57
2024/03/04 11:36:26;;;;;;;85.47;10.38;;;11.80;93.40;;;;;;5064009;28;20517;-57
2024/03/04 11:38:52;;;;;;;110.45;13.43;;;11.90;93.30;;;;;;5046836;28;20072;-57
2024/03/04 11:41:36;;;;;;;113.32;13.88;;;12.00;93.40;;;;;;5046333;28;20352;-57
2024/03/04 11:44:03;;;;;;;77.03;11.00;;;12.00;93.20;;;;;;5062627;28;20112;-57
2024/03/04 11:46:28;;;;;;;63.75;10.60;;;12.10;93.40;;;;;;5055271;28;20025;-57
2024/03/04 11:48:56;;;;;;;54.35;9.13;;;12.10;93.30;;;;;;5030410;28;20094;-57
2024/03/04 11:51:43;;;;;;;49.42;9.88;;;12.10;93.20;;;;;;5041489;28;20022;-57
2024/03/04 11:54:09;;;;;;;44.33;8.68;;;12.20;93.00;;;;;;5033240;28;20033;-57
2024/03/04 11:56:35;;;;;;;70.88;10.73;;;12.20;93.30;;;;;;5066094;28;20566;-57
2024/03/04 11:59:00;;;;;;;60.40;10.38;;;12.20;93.00;;;;;;5031970;28;20510;-57
2024/03/04 12:01:26;;;;;;;87.70;11.35;;;12.30;93.10;;;;;;5048518;28;20017;-57
2024/03/04 12:03:55;;;;;;;73.60;10.02;;;12.30;93.10;;;;;;5061170;28;20036;-57
2024/03/04 12:06:21;;;;;;;52.05;9.10;;;12.40;92.90;;;;;;5030899;28;20463;-57
2024/03/04 12:08:46;;;;;;;65.03;10.50;;;12.40;92.80;;;;;;5049297;28;20052;-57
2024/03/04 12:11:15;;;;;;;62.53;10.52;;;12.40;92.80;;;;;;5036173;28;20025;-57
2024/03/04 12:13:41;;;;;;;71.00;10.68;;;12.50;92.70;;;;;;5067162;28;20075;-57
2024/03/04 12:16:06;;;;;;;65.90;10.45;;;12.60;92.80;;;;;;5044846;28;20407;-57
2024/03/04 12:18:32;;;;;;;61.95;10.00;;;12.60;92.70;;;;;;5057471;28;20017;-57
2024/03/04 12:20:58;;;;;;;72.47;10.20;;;12.60;92.60;;;;;;5034585;28;20021;-57
2024/03/04 12:23:27;;;;;;;81.57;11.60;;;12.70;92.50;;;;;;5050301;28;20036;-57
2024/03/04 12:25:52;;;;;;;93.47;11.57;;;12.80;92.50;;;;;;5063982;28;20025;-57
2024/03/04 12:28:18;;;;;;;69.38;12.60;;;12.80;92.40;;;;;;5031570;28;20025;-57
2024/03/04 12:30:44;;;;;;;79.15;10.80;;;12.80;92.30;;;;;;5043460;28;20029;-57
2024/03/04 12:33:10;;;;;;;70.15;11.13;;;12.90;92.20;;;;;;5037430;28;20033;-57
2024/03/04 12:35:35;;;;;;;69.45;10.13;;;12.90;92.20;;;;;;5049261;28;20040;-57